Time;durP1;ratioP1;P1;durP2;ratioP2;P2;SDS_P1;SDS_P2;PMS_P1;PMS_P2;Temp;Humidity;BMP_temperature;BMP_pressure;BME280_temperature;BME280_humidity;BME280_pressure;Samples;Min_cycle;Max_cycle;Signal;HPM_P1;HPM_P2
2023/06/02 00:02:05;;;;;;;;;;;17.60;86.00;;;;;;5031128;28;19920;-74
2023/06/02 00:04:30;;;;;;;;;;;17.50;86.10;;;;;;5035972;28;19913;-74
2023/06/02 00:07:02;;;;;;;;;;;17.50;86.30;;;;;;5031090;28;19938;-73
2023/06/02 00:09:36;;;;;;;;;;;17.50;86.70;;;;;;5026961;28;19921;-73
2023/06/02 00:12:01;;;;;;;;;;;17.30;87.70;;;;;;5037688;28;19908;-73
2023/06/02 00:14:27;;;;;;;;;;;17.10;88.60;;;;;;5041649;28;20402;-74
2023/06/02 00:16:55;;;;;;;;;;;17.10;88.80;;;;;;5029534;28;20446;-73
2023/06/02 00:19:20;;;;;;;;;;;17.00;88.80;;;;;;5041338;28;19909;-73
2023/06/02 00:21:47;;;;;;;;;;;17.00;88.90;;;;;;5034566;28;19962;-73
2023/06/02 00:24:13;;;;;;;;;;;16.90;89.10;;;;;;5036247;28;19915;-73
2023/06/02 00:26:38;;;;;;;;;;;16.90;89.10;;;;;;5044611;28;19908;-73
2023/06/02 00:29:04;;;;;;;;;;;16.90;89.20;;;;;;5042894;28;19928;-72
2023/06/02 00:31:30;;;;;;;;;;;16.90;89.60;;;;;;5042397;28;20579;-74
2023/06/02 00:33:55;;;;;;;;;;;16.90;89.40;;;;;;5036720;28;20031;-75
2023/06/02 00:36:21;;;;;;;;;;;16.90;89.40;;;;;;5040709;28;20023;-75
2023/06/02 00:38:46;;;;;;;;;;;16.80;89.60;;;;;;5037300;28;19916;-74
2023/06/02 00:41:12;;;;;;;;;;;16.80;89.80;;;;;;5025584;28;19996;-76
2023/06/02 00:43:37;;;;;;;;;;;16.80;89.80;;;;;;5035117;28;19955;-74
2023/06/02 00:46:03;;;;;;;;;;;16.70;90.00;;;;;;5030570;28;19913;-75
2023/06/02 00:48:29;;;;;;;;;;;16.70;90.00;;;;;;5034278;28;20103;-74
2023/06/02 00:50:54;;;;;;;;;;;16.70;90.00;;;;;;5035356;28;20386;-74
2023/06/02 00:53:20;;;;;;;;;;;16.70;90.00;;;;;;5027078;28;20162;-74
2023/06/02 00:55:46;;;;;;;;;;;16.70;89.90;;;;;;5039739;28;19909;-74
2023/06/02 00:58:13;;;;;;;;;;;16.70;89.80;;;;;;5033645;28;19967;-74
2023/06/02 01:00:41;;;;;;;;;;;16.60;90.00;;;;;;5035404;28;20303;-74
2023/06/02 01:03:07;;;;;;;;;;;16.70;89.60;;;;;;5038974;28;20406;-74
2023/06/02 01:05:33;;;;;;;;;;;16.70;89.40;;;;;;5031267;28;20019;-73
2023/06/02 01:08:01;;;;;;;;;;;16.70;89.60;;;;;;5037325;28;19909;-74
2023/06/02 01:10:27;;;;;;;;;;;16.50;89.70;;;;;;5033465;28;19924;-74
2023/06/02 01:12:53;;;;;;;;;;;16.60;89.50;;;;;;5029376;28;19919;-74
2023/06/02 01:15:19;;;;;;;;;;;16.50;89.60;;;;;;5036916;28;20820;-74
2023/06/02 01:17:45;;;;;;;;;;;16.50;89.70;;;;;;5033385;28;19913;-74
2023/06/02 01:20:12;;;;;;;;;;;16.40;89.70;;;;;;5030460;28;20398;-74
2023/06/02 01:22:40;;;;;;;;;;;16.40;89.70;;;;;;5032466;28;19963;-75
2023/06/02 01:25:16;;;;;;;;;;;16.40;89.70;;;;;;5032235;28;19925;-74
2023/06/02 01:27:41;;;;;;;;;;;16.40;89.70;;;;;;5043839;28;20011;-75
2023/06/02 01:30:07;;;;;;;;;;;16.40;89.70;;;;;;5042663;28;20763;-75
2023/06/02 01:32:35;;;;;;;;;;;16.30;89.70;;;;;;5032410;28;19920;-75
2023/06/02 01:35:05;;;;;;;;;;;16.20;90.00;;;;;;5032405;28;19913;-74
2023/06/02 01:37:34;;;;;;;;;;;16.10;90.20;;;;;;5036885;28;20724;-75
2023/06/02 01:40:01;;;;;;;;;;;16.10;90.30;;;;;;5031975;28;19920;-75
2023/06/02 01:42:27;;;;;;;;;;;16.00;90.30;;;;;;5026400;28;19948;-74
2023/06/02 01:44:53;;;;;;;;;;;16.00;90.30;;;;;;5037188;28;20542;-74
2023/06/02 01:47:19;;;;;;;;;;;16.10;90.20;;;;;;5028446;28;20020;-74
2023/06/02 01:49:44;;;;;;;;;;;16.00;90.20;;;;;;5029942;28;19924;-73
2023/06/02 01:52:10;;;;;;;;;;;16.00;90.40;;;;;;5025185;28;19919;-73
2023/06/02 01:54:36;;;;;;;;;;;15.90;90.50;;;;;;5037411;28;19912;-73
2023/06/02 01:57:02;;;;;;;;;;;15.90;90.40;;;;;;5033016;28;19917;-74
2023/06/02 02:02:31;;;;;;;;;;;15.90;90.50;;;;;;5036025;28;19923;-74
2023/06/02 02:04:57;;;;;;;;;;;15.80;90.50;;;;;;5036355;28;19912;-73
2023/06/02 02:07:23;;;;;;;;;;;15.80;90.60;;;;;;5027681;28;19944;-73
2023/06/02 02:09:49;;;;;;;;;;;15.70;90.60;;;;;;5036161;28;19927;-72
2023/06/02 02:12:15;;;;;;;;;;;15.70;90.70;;;;;;5031519;28;19912;-73
2023/06/02 02:14:41;;;;;;;;;;;15.80;90.60;;;;;;5038844;28;19925;-73
2023/06/02 02:17:07;;;;;;;;;;;15.80;90.50;;;;;;5030589;28;20063;-73
2023/06/02 02:19:32;;;;;;;;;;;15.80;90.40;;;;;;5030270;28;20421;-73
2023/06/02 02:21:58;;;;;;;;;;;15.80;90.40;;;;;;5029801;28;20772;-73
2023/06/02 02:24:23;;;;;;;;;;;15.80;90.30;;;;;;5027396;28;19917;-74
2023/06/02 02:26:49;;;;;;;;;;;15.80;90.30;;;;;;5035826;28;19920;-74
2023/06/02 02:29:14;;;;;;;;;;;15.80;90.30;;;;;;5024744;28;19936;-74
2023/06/02 02:31:40;;;;;;;;;;;15.70;90.40;;;;;;5031180;28;19940;-74
2023/06/02 02:34:06;;;;;;;;;;;15.70;90.50;;;;;;5032869;28;19966;-74
2023/06/02 02:36:32;;;;;;;;;;;15.70;90.40;;;;;;5026490;28;19913;-74
2023/06/02 02:38:57;;;;;;;;;;;15.60;90.50;;;;;;5031952;28;19913;-75
2023/06/02 02:41:23;;;;;;;;;;;15.60;90.50;;;;;;5030331;28;19924;-75
2023/06/02 02:43:49;;;;;;;;;;;15.60;90.40;;;;;;5029198;28;19913;-74
2023/06/02 02:46:15;;;;;;;;;;;15.60;90.50;;;;;;5031557;28;19916;-74
2023/06/02 02:48:41;;;;;;;;;;;15.60;90.50;;;;;;5035382;28;19918;-75
2023/06/02 02:51:06;;;;;;;;;;;15.50;90.50;;;;;;5036229;28;20475;-74
2023/06/02 02:53:32;;;;;;;;;;;15.50;90.60;;;;;;5037192;28;20462;-74
2023/06/02 02:55:58;;;;;;;;;;;15.50;90.60;;;;;;5034024;28;20302;-74
2023/06/02 02:58:24;;;;;;;;;;;15.50;90.50;;;;;;5041015;28;19912;-74
2023/06/02 03:00:50;;;;;;;;;;;15.50;90.40;;;;;;5035290;28;19923;-74
2023/06/02 03:03:15;;;;;;;;;;;15.50;90.30;;;;;;5041905;28;19931;-73
2023/06/02 03:05:41;;;;;;;;;;;15.60;90.30;;;;;;5031554;28;19921;-73
2023/06/02 03:08:09;;;;;;;;;;;15.50;90.30;;;;;;5029361;28;20897;-74
2023/06/02 03:10:35;;;;;;;;;;;15.50;90.30;;;;;;5031066;28;19964;-74
2023/06/02 03:13:01;;;;;;;;;;;15.40;90.30;;;;;;5032837;28;19919;-74
2023/06/02 03:15:27;;;;;;;;;;;15.40;90.50;;;;;;5040702;28;19917;-75
2023/06/02 03:17:55;;;;;;;;;;;15.30;90.60;;;;;;5032147;28;19912;-74
2023/06/02 03:20:21;;;;;;;;;;;15.30;90.70;;;;;;5028162;28;19913;-74
2023/06/02 03:22:47;;;;;;;;;;;15.10;90.90;;;;;;5031066;28;19912;-73
2023/06/02 03:25:13;;;;;;;;;;;15.20;90.90;;;;;;5030959;28;20687;-73
2023/06/02 03:27:39;;;;;;;;;;;15.10;90.90;;;;;;5031633;28;19912;-73
2023/06/02 03:30:04;;;;;;;;;;;15.10;91.00;;;;;;5026182;28;20392;-73
2023/06/02 03:32:30;;;;;;;;;;;15.10;91.00;;;;;;5034457;28;19913;-74
2023/06/02 03:34:55;;;;;;;;;;;15.10;91.10;;;;;;5035121;28;19913;-74
2023/06/02 03:37:21;;;;;;;;;;;15.00;91.20;;;;;;5035195;28;19912;-74
2023/06/02 03:39:47;;;;;;;;;;;15.00;91.30;;;;;;5034012;28;19974;-74
2023/06/02 03:42:12;;;;;;;;;;;14.90;91.20;;;;;;5034136;28;19913;-73
2023/06/02 03:44:38;;;;;;;;;;;15.00;91.20;;;;;;5025198;28;19948;-73
2023/06/02 03:47:03;;;;;;;;;;;14.90;91.30;;;;;;5026469;28;19920;-73
2023/06/02 03:49:29;;;;;;;;;;;14.90;91.40;;;;;;5031497;28;20682;-74
2023/06/02 03:51:55;;;;;;;;;;;14.80;91.40;;;;;;5031273;28;19912;-73
2023/06/02 03:54:20;;;;;;;;;;;14.80;91.40;;;;;;5029526;28;19916;-73
2023/06/02 03:56:46;;;;;;;;;;;14.70;91.50;;;;;;5033315;28;19968;-74
2023/06/02 03:59:11;;;;;;;;;;;14.70;91.60;;;;;;5035821;28;19971;-73
2023/06/02 04:01:37;;;;;;;;;;;14.60;91.70;;;;;;5036115;28;19931;-74
2023/06/02 04:04:03;;;;;;;;;;;14.60;91.70;;;;;;5028449;28;19930;-73
2023/06/02 04:06:28;;;;;;;;;;;14.60;91.80;;;;;;5029429;28;20007;-74
2023/06/02 04:08:54;;;;;;;;;;;14.70;91.60;;;;;;5033457;28;19925;-74
2023/06/02 04:11:22;;;;;;;;;;;14.70;91.60;;;;;;5034954;28;19984;-74
2023/06/02 04:13:48;;;;;;;;;;;14.60;91.60;;;;;;5027428;28;19977;-74
2023/06/02 04:16:14;;;;;;;;;;;14.70;91.50;;;;;;5029900;28;19923;-75
2023/06/02 04:18:40;;;;;;;;;;;14.60;91.50;;;;;;5031061;28;19909;-74
2023/06/02 04:21:05;;;;;;;;;;;14.70;91.50;;;;;;5025084;28;19979;-74
2023/06/02 04:23:31;;;;;;;;;;;14.70;91.50;;;;;;5024271;28;19934;-74
2023/06/02 04:25:56;;;;;;;;;;;14.70;91.40;;;;;;5035398;28;19908;-73
2023/06/02 04:28:22;;;;;;;;;;;14.80;91.30;;;;;;5038813;28;19924;-72
2023/06/02 04:30:48;;;;;;;;;;;14.80;91.10;;;;;;5037387;28;19935;-72
2023/06/02 04:33:14;;;;;;;;;;;14.90;90.90;;;;;;5034028;28;19924;-72
2023/06/02 04:35:40;;;;;;;;;;;15.10;90.80;;;;;;5039757;28;20247;-72
2023/06/02 04:38:06;;;;;;;;;;;15.40;90.20;;;;;;5037565;28;19913;-73
2023/06/02 04:40:31;;;;;;;;;;;15.80;88.80;;;;;;5031094;28;20057;-72
2023/06/02 04:42:58;;;;;;;;;;;15.80;88.30;;;;;;5027647;28;19913;-73
2023/06/02 04:45:24;;;;;;;;;;;16.30;87.00;;;;;;5035611;28;19990;-72
2023/06/02 04:47:49;;;;;;;;;;;16.90;84.60;;;;;;5033829;28;19909;-72
2023/06/02 04:50:15;;;;;;;;;;;17.30;82.60;;;;;;5035399;28;19920;-72
2023/06/02 04:52:42;;;;;;;;;;;17.00;82.90;;;;;;5032154;28;20607;-72
2023/06/02 04:55:08;;;;;;;;;;;16.90;83.60;;;;;;5029569;28;20035;-72
2023/06/02 04:57:34;;;;;;;;;;;16.90;83.80;;;;;;5036234;28;19920;-73
2023/06/02 05:00:00;;;;;;;;;;;17.10;82.90;;;;;;5031141;28;19919;-73
2023/06/02 05:02:26;;;;;;;;;;;17.10;83.10;;;;;;5033115;28;19943;-73
2023/06/02 05:04:51;;;;;;;;;;;17.00;83.10;;;;;;5036485;28;20481;-72
2023/06/02 05:07:17;;;;;;;;;;;17.00;83.30;;;;;;5039566;28;19913;-72
2023/06/02 05:09:42;;;;;;;;;;;17.30;82.30;;;;;;5015765;28;20431;-72
2023/06/02 05:12:09;;;;;;;;;;;17.00;82.90;;;;;;5033653;28;20509;-73
2023/06/02 05:14:36;;;;;;;;;;;17.50;82.30;;;;;;5037461;28;20007;-72
2023/06/02 05:17:02;;;;;;;;;;;18.10;79.90;;;;;;5032146;28;19949;-72
2023/06/02 05:19:27;;;;;;;;;;;18.50;78.80;;;;;;5038095;28;20498;-72
2023/06/02 05:21:53;;;;;;;;;;;18.80;77.20;;;;;;5017533;28;19917;-72
2023/06/02 05:24:19;;;;;;;;;;;19.00;76.40;;;;;;5032649;28;20007;-72
2023/06/02 05:26:44;;;;;;;;;;;19.20;75.20;;;;;;5038746;28;19912;-72
2023/06/02 05:29:10;;;;;;;;;;;19.40;75.10;;;;;;5039654;28;20268;-73
2023/06/02 05:31:35;;;;;;;;;;;19.80;74.20;;;;;;5040980;28;19959;-73
2023/06/02 05:34:01;;;;;;;;;;;20.10;72.50;;;;;;5030973;28;20339;-74
2023/06/02 05:36:26;;;;;;;;;;;20.20;71.70;;;;;;5043804;28;19912;-76
2023/06/02 05:38:52;;;;;;;;;;;20.10;71.70;;;;;;5037564;28;19912;-74
2023/06/02 05:41:17;;;;;;;;;;;20.30;71.40;;;;;;5014715;28;19921;-77
2023/06/02 05:43:43;;;;;;;;;;;20.70;70.00;;;;;;5040853;28;20208;-76
2023/06/02 05:46:09;;;;;;;;;;;21.00;68.90;;;;;;5029601;28;19913;-76
2023/06/02 05:48:34;;;;;;;;;;;21.40;67.90;;;;;;5041357;28;19999;-77
2023/06/02 05:51:00;;;;;;;;;;;21.90;66.50;;;;;;5037618;28;20015;-78
2023/06/02 05:53:25;;;;;;;;;;;22.00;66.60;;;;;;5037644;28;19905;-75
2023/06/02 05:55:51;;;;;;;;;;;21.50;67.50;;;;;;5037426;28;19959;-79
2023/06/02 05:58:18;;;;;;;;;;;21.70;66.40;;;;;;5043293;28;20474;-77
2023/06/02 06:00:43;;;;;;;;;;;21.90;66.30;;;;;;5035327;28;19909;-78
2023/06/02 06:03:09;;;;;;;;;;;22.20;66.40;;;;;;5042685;28;19939;-82
2023/06/02 06:05:35;;;;;;;;;;;22.60;65.40;;;;;;5042035;28;20002;-76
2023/06/02 06:08:00;;;;;;;;;;;23.70;62.30;;;;;;5037685;28;19919;-76
2023/06/02 06:10:26;;;;;;;;;;;24.50;59.40;;;;;;5033619;28;20346;-76
2023/06/02 06:12:52;;;;;;;;;;;24.70;59.20;;;;;;5036051;28;19926;-76
2023/06/02 06:15:17;;;;;;;;;;;24.60;58.80;;;;;;5043415;28;19913;-76
2023/06/02 06:17:50;;;;;;;;;;;24.50;58.70;;;;;;5042045;28;19909;-76
2023/06/02 06:20:16;;;;;;;;;;;24.70;57.00;;;;;;5032538;28;19912;-76
2023/06/02 06:22:42;;;;;;;;;;;25.20;56.50;;;;;;5031353;28;20533;-77
2023/06/02 06:25:08;;;;;;;;;;;25.60;55.50;;;;;;5031018;28;19916;-78
2023/06/02 06:27:33;;;;;;;;;;;25.20;55.40;;;;;;5031610;28;19913;-78
2023/06/02 06:29:59;;;;;;;;;;;24.70;56.10;;;;;;5027184;28;19925;-78
2023/06/02 06:32:24;;;;;;;;;;;24.20;57.10;;;;;;5027258;28;19908;-79
2023/06/02 06:34:50;;;;;;;;;;;24.30;56.90;;;;;;5026459;28;19916;-78
2023/06/02 06:37:15;;;;;;;;;;;24.40;56.60;;;;;;5028783;28;19916;-78
2023/06/02 06:39:41;;;;;;;;;;;25.30;56.00;;;;;;5042800;28;20375;-78
2023/06/02 06:42:07;;;;;;;;;;;26.60;53.20;;;;;;5038544;28;19912;-78
2023/06/02 06:44:33;;;;;;;;;;;26.30;52.40;;;;;;5041722;28;20391;-78
2023/06/02 06:46:58;;;;;;;;;;;26.60;52.60;;;;;;5028867;28;19916;-78
2023/06/02 06:49:24;;;;;;;;;;;26.70;51.50;;;;;;5040717;28;20433;-78
2023/06/02 06:51:49;;;;;;;;;;;26.70;51.80;;;;;;5029096;28;19951;-78
2023/06/02 06:54:15;;;;;;;;;;;28.00;50.40;;;;;;5034984;28;19948;-78
2023/06/02 06:56:43;;;;;;;;;;;28.10;49.30;;;;;;5035994;28;19909;-78
2023/06/02 06:59:10;;;;;;;;;;;28.10;48.50;;;;;;5030507;28;19991;-78
2023/06/02 07:01:36;;;;;;;;;;;28.30;46.60;;;;;;5022966;28;19909;-78
2023/06/02 07:04:02;;;;;;;;;;;29.20;46.30;;;;;;5034685;28;20243;-78
2023/06/02 07:06:27;;;;;;;;;;;29.20;47.40;;;;;;5034591;28;19915;-78
2023/06/02 07:08:53;;;;;;;;;;;28.60;47.40;;;;;;5035119;28;19931;-78
2023/06/02 07:11:18;;;;;;;;;;;28.80;46.50;;;;;;5016389;28;19909;-79
2023/06/02 07:13:44;;;;;;;;;;;29.20;45.30;;;;;;5038511;28;19913;-79
2023/06/02 07:16:09;;;;;;;;;;;29.50;45.20;;;;;;5027735;28;19909;-78
2023/06/02 07:18:35;;;;;;;;;;;29.40;43.90;;;;;;5031212;28;19905;-78
2023/06/02 07:21:01;;;;;;;;;;;29.50;44.80;;;;;;5027742;28;19916;-78
2023/06/02 07:23:26;;;;;;;;;;;29.50;45.00;;;;;;5033537;28;19991;-78
2023/06/02 07:25:52;;;;;;;;;;;29.60;46.10;;;;;;5046135;28;20397;-79
2023/06/02 07:28:17;;;;;;;;;;;29.20;43.60;;;;;;5032987;28;20375;-78
2023/06/02 07:30:51;;;;;;;;;;;29.30;44.50;;;;;;5040414;28;20741;-78
2023/06/02 07:33:17;;;;;;;;;;;29.90;43.80;;;;;;5026285;28;19905;-78
2023/06/02 07:35:43;;;;;;;;;;;30.30;44.10;;;;;;5031212;28;19909;-78
2023/06/02 07:38:08;;;;;;;;;;;30.70;43.90;;;;;;5026178;28;20182;-78
2023/06/02 07:40:34;;;;;;;;;;;32.20;42.50;;;;;;5025813;28;19913;-81
2023/06/02 07:42:59;;;;;;;;;;;32.80;41.10;;;;;;5035660;28;19920;-79
2023/06/02 07:45:25;;;;;;;;;;;32.70;42.20;;;;;;5032761;28;20368;-78
2023/06/02 07:47:51;;;;;;;;;;;32.40;41.50;;;;;;5037902;28;19909;-78
2023/06/02 07:50:18;;;;;;;;;;;32.50;41.20;;;;;;5031518;28;19917;-79
2023/06/02 07:52:44;;;;;;;;;;;32.30;42.00;;;;;;5025594;28;19909;-80
2023/06/02 07:55:10;;;;;;;;;;;33.20;40.60;;;;;;5016755;28;19919;-79
2023/06/02 07:57:35;;;;;;;;;;;34.40;40.80;;;;;;5030216;28;19910;-79
2023/06/02 08:00:10;;;;;;;;;;;35.20;37.70;;;;;;5029817;28;19913;-79
2023/06/02 08:02:36;;;;;;;;;;;35.40;37.60;;;;;;5014875;28;19909;-79
2023/06/02 08:05:01;;;;;;;;;;;35.40;38.30;;;;;;5025238;28;19950;-79
2023/06/02 08:07:27;;;;;;;;;;;35.20;37.90;;;;;;5028419;28;19916;-79
2023/06/02 08:09:52;;;;;;;;;;;34.70;38.90;;;;;;5039447;28;19916;-79
2023/06/02 08:12:20;;;;;;;;;;;34.30;39.10;;;;;;5025373;28;19916;-79
2023/06/02 08:14:45;;;;;;;;;;;34.70;38.50;;;;;;5029385;28;20752;-78
2023/06/02 08:17:11;;;;;;;;;;;35.30;37.50;;;;;;5025108;28;19916;-79
2023/06/02 08:19:36;;;;;;;;;;;35.10;37.90;;;;;;5025069;28;20026;-79
2023/06/02 08:22:02;;;;;;;;;;;35.10;36.70;;;;;;5032976;28;20295;-79
2023/06/02 08:24:28;;;;;;;;;;;35.30;37.50;;;;;;5024490;28;19983;-79
2023/06/02 08:26:54;;;;;;;;;;;36.30;36.30;;;;;;5038906;28;19956;-80
2023/06/02 08:29:20;;;;;;;;;;;36.10;38.10;;;;;;5032303;28;20075;-79
2023/06/02 08:31:47;;;;;;;;;;;35.30;38.00;;;;;;5028325;28;19908;-79
2023/06/02 08:34:12;;;;;;;;;;;34.80;38.40;;;;;;5040413;28;19977;-80
2023/06/02 08:36:38;;;;;;;;;;;34.20;37.70;;;;;;5034123;28;20650;-79
2023/06/02 08:39:06;;;;;;;;;;;35.20;37.10;;;;;;5022451;28;19913;-79
2023/06/02 08:41:34;;;;;;;;;;;35.90;36.90;;;;;;5027925;28;19916;-78
2023/06/02 08:44:00;;;;;;;;;;;36.80;35.80;;;;;;5029193;28;19909;-79
2023/06/02 08:46:25;;;;;;;;;;;36.60;34.30;;;;;;5035461;28;19916;-79
2023/06/02 08:48:55;;;;;;;;;;;37.30;34.20;;;;;;5041114;28;19909;-79
2023/06/02 08:51:23;;;;;;;;;;;37.50;34.20;;;;;;5031883;28;19909;-79
2023/06/02 08:53:49;;;;;;;;;;;37.70;34.90;;;;;;5034554;28;20387;-79
2023/06/02 08:56:15;;;;;;;;;;;37.60;34.80;;;;;;5034449;28;20011;-79
2023/06/02 08:58:43;;;;;;;;;;;36.60;35.30;;;;;;5026246;28;19913;-78
2023/06/02 09:01:09;;;;;;;;;;;37.30;35.70;;;;;;5021623;28;19909;-79
2023/06/02 09:03:34;;;;;;;;;;;38.10;35.80;;;;;;5038222;28;19919;-79
2023/06/02 09:06:00;;;;;;;;;;;39.00;35.40;;;;;;5028608;28;19909;-80
2023/06/02 09:08:29;;;;;;;;;;;38.60;34.30;;;;;;5031969;28;19927;-79
2023/06/02 09:10:54;;;;;;;;;;;38.60;34.40;;;;;;5038355;28;20338;-79
2023/06/02 09:13:30;;;;;;;;;;;38.50;34.50;;;;;;5031281;28;19913;-79
2023/06/02 09:16:03;;;;;;;;;;;38.70;33.80;;;;;;5031218;28;20583;-79
2023/06/02 09:18:29;;;;;;;;;;;38.50;32.70;;;;;;5035271;28;19915;-79
2023/06/02 09:20:58;;;;;;;;;;;38.60;32.60;;;;;;5032022;28;19913;-79
2023/06/02 09:23:39;;;;;;;;;;;38.50;33.60;;;;;;5030747;28;19909;-79
2023/06/02 09:26:06;;;;;;;;;;;38.20;33.90;;;;;;5038887;28;19912;-80
2023/06/02 09:28:31;;;;;;;;;;;38.50;33.50;;;;;;5035415;28;20071;-79
2023/06/02 09:31:03;;;;;;;;;;;38.40;34.10;;;;;;5042590;28;19925;-78
2023/06/02 09:33:29;;;;;;;;;;;38.60;33.50;;;;;;5031571;28;19982;-79
2023/06/02 09:35:54;;;;;;;;;;;38.40;33.30;;;;;;5041353;28;20430;-79
2023/06/02 09:38:20;;;;;;;;;;;37.40;34.00;;;;;;5041371;28;19908;-79
2023/06/02 09:40:45;;;;;;;;;;;38.20;33.70;;;;;;5041175;28;19920;-79
2023/06/02 09:43:12;;;;;;;;;;;38.90;33.50;;;;;;5037538;28;19963;-78
2023/06/02 09:45:58;;;;;;;;;;;39.40;34.00;;;;;;5040068;28;19908;-79
2023/06/02 09:48:23;;;;;;;;;;;39.60;31.90;;;;;;5037854;28;19908;-80
2023/06/02 09:50:49;;;;;;;;;;;39.20;32.40;;;;;;5033292;28;19917;-80
2023/06/02 09:53:17;;;;;;;;;;;38.70;33.90;;;;;;5036131;28;19909;-79
2023/06/02 09:55:44;;;;;;;;;;;37.70;35.20;;;;;;5033990;28;19916;-78
2023/06/02 09:58:10;;;;;;;;;;;38.70;37.30;;;;;;5031102;28;20410;-80
2023/06/02 10:00:36;;;;;;;;;;;39.70;35.30;;;;;;5017366;28;19905;-78
2023/06/02 10:03:02;;;;;;;;;;;40.60;34.40;;;;;;5035819;28;19908;-78
2023/06/02 10:05:28;;;;;;;;;;;41.50;34.90;;;;;;5032114;28;20379;-78
2023/06/02 10:07:54;;;;;;;;;;;41.60;34.80;;;;;;5031409;28;20875;-80
2023/06/02 10:10:35;;;;;;;;;;;41.50;34.20;;;;;;5031453;28;19921;-80
2023/06/02 10:13:13;;;;;;;;;;;41.10;33.00;;;;;;5032226;28;20000;-79
2023/06/02 10:15:45;;;;;;;;;;;40.80;34.80;;;;;;5028313;28;19916;-78
2023/06/02 10:18:30;;;;;;;;;;;41.40;34.00;;;;;;5021421;28;20527;-78
2023/06/02 10:21:09;;;;;;;;;;;40.10;33.00;;;;;;5029225;28;19916;-79
2023/06/02 10:23:38;;;;;;;;;;;41.10;33.30;;;;;;5033547;28;19953;-79
2023/06/02 10:26:07;;;;;;;;;;;40.50;32.80;;;;;;5038999;28;20098;-78
2023/06/02 10:28:33;;;;;;;;;;;41.00;33.20;;;;;;5030499;28;19928;-78
2023/06/02 10:31:06;;;;;;;;;;;41.60;32.70;;;;;;5036237;28;19924;-79
2023/06/02 10:33:45;;;;;;;;;;;41.70;33.30;;;;;;5027855;28;20602;-79
2023/06/02 10:36:13;;;;;;;;;;;41.10;34.20;;;;;;5037457;28;19916;-80
2023/06/02 10:38:39;;;;;;;;;;;40.50;35.30;;;;;;5039833;28;20505;-78
2023/06/02 10:41:05;;;;;;;;;;;39.70;33.80;;;;;;5030225;28;19913;-78
2023/06/02 10:43:32;;;;;;;;;;;37.50;32.10;;;;;;5035526;28;19909;-79
2023/06/02 10:46:17;;;;;;;;;;;36.00;34.00;;;;;;5026423;28;19955;-78
2023/06/02 10:48:43;;;;;;;;;;;35.50;38.00;;;;;;5039748;28;20117;-79
2023/06/02 10:51:09;;;;;;;;;;;34.70;40.20;;;;;;5031376;28;20718;-80
2023/06/02 10:53:54;;;;;;;;;;;34.20;39.10;;;;;;5037037;28;19943;-80
2023/06/02 10:56:34;;;;;;;;;;;33.20;39.60;;;;;;5030766;28;19909;-79
2023/06/02 10:59:00;;;;;;;;;;;32.50;39.50;;;;;;5029835;28;19909;-78
2023/06/02 11:01:44;;;;;;;;;;;31.90;40.10;;;;;;5029888;28;19967;-78
2023/06/02 11:04:28;;;;;;;;;;;32.30;44.30;;;;;;5031111;28;19913;-79
2023/06/02 11:07:12;;;;;;;;;;;32.70;43.80;;;;;;5031057;28;19917;-79
2023/06/02 11:09:42;;;;;;;;;;;32.30;39.70;;;;;;5029085;28;20019;-79
2023/06/02 11:12:08;;;;;;;;;;;32.00;39.30;;;;;;5037911;28;19913;-78
2023/06/02 11:15:09;;;;;;;;;;;32.30;40.80;;;;;;5025456;28;19947;-78
2023/06/02 11:17:35;;;;;;;;;;;32.10;42.40;;;;;;4956610;28;19962;-80
2023/06/02 11:20:04;;;;;;;;;;;31.80;39.40;;;;;;5020474;28;20107;-78
2023/06/02 11:22:31;;;;;;;;;;;31.60;38.00;;;;;;5028674;28;19909;-80
2023/06/02 11:24:58;;;;;;;;;;;32.10;39.50;;;;;;5031804;28;19916;-79
2023/06/02 11:27:37;;;;;;;;;;;31.90;41.00;;;;;;5019528;28;19909;-78
2023/06/02 11:30:05;;;;;;;;;;;31.70;41.30;;;;;;5037512;28;20024;-78
2023/06/02 11:32:31;;;;;;;;;;;32.00;44.70;;;;;;5031338;28;19913;-79
2023/06/02 11:35:00;;;;;;;;;;;32.50;39.10;;;;;;5037038;28;19908;-79
2023/06/02 11:37:26;;;;;;;;;;;32.70;38.40;;;;;;5033040;28;19970;-79
2023/06/02 11:39:53;;;;;;;;;;;32.30;36.70;;;;;;5026499;28;20404;-79
2023/06/02 11:42:18;;;;;;;;;;;31.70;39.40;;;;;;5020339;28;19952;-79
2023/06/02 11:44:47;;;;;;;;;;;31.10;37.70;;;;;;5034766;28;19995;-78
2023/06/02 11:47:16;;;;;;;;;;;30.80;38.30;;;;;;5037672;28;19915;-78
2023/06/02 11:49:42;;;;;;;;;;;30.20;39.30;;;;;;5034383;28;19924;-79
2023/06/02 11:52:09;;;;;;;;;;;29.90;37.90;;;;;;5037581;28;19912;-79
2023/06/02 11:54:47;;;;;;;;;;;29.70;38.70;;;;;;5025061;28;19958;-81
2023/06/02 11:57:12;;;;;;;;;;;29.60;39.50;;;;;;5031004;28;20372;-78
2023/06/02 11:59:39;;;;;;;;;;;29.40;40.20;;;;;;5029524;28;19940;-78
2023/06/02 12:02:18;;;;;;;;;;;29.20;41.70;;;;;;5030317;28;19913;-78
2023/06/02 12:04:44;;;;;;;;;;;28.90;42.90;;;;;;5035261;28;19963;-79
2023/06/02 12:07:09;;;;;;;;;;;27.80;45.90;;;;;;5028958;28;19939;-80
2023/06/02 12:09:35;;;;;;;;;;;27.60;44.70;;;;;;5037638;28;19912;-78
2023/06/02 12:12:06;;;;;;;;;;;27.40;45.70;;;;;;5018285;28;19920;-79
2023/06/02 12:14:38;;;;;;;;;;;27.60;45.40;;;;;;5028871;28;20443;-79
2023/06/02 12:17:04;;;;;;;;;;;27.70;45.10;;;;;;5023807;28;19916;-79
2023/06/02 12:19:30;;;;;;;;;;;27.80;44.40;;;;;;5033759;28;20659;-78
2023/06/02 12:22:05;;;;;;;;;;;27.80;46.90;;;;;;5026312;28;19935;-78
2023/06/02 12:24:34;;;;;;;;;;;26.10;58.30;;;;;;5034176;28;19909;-78
2023/06/02 12:27:00;;;;;;;;;;;25.50;62.20;;;;;;5040528;28;19909;-79
2023/06/02 12:29:27;;;;;;;;;;;26.00;58.00;;;;;;5038381;28;20023;-78
2023/06/02 12:31:56;;;;;;;;;;;26.90;55.60;;;;;;5021557;28;19959;-78
2023/06/02 12:34:22;;;;;;;;;;;27.30;56.00;;;;;;5026538;28;20335;-78
2023/06/02 12:36:47;;;;;;;;;;;27.50;55.20;;;;;;5038498;28;19975;-78
2023/06/02 12:39:13;;;;;;;;;;;27.50;53.70;;;;;;5037078;28;19956;-79
2023/06/02 12:41:38;;;;;;;;;;;27.50;50.30;;;;;;5037766;28;20027;-78
2023/06/02 12:44:04;;;;;;;;;;;26.90;53.80;;;;;;5040074;28;19913;-78
2023/06/02 12:46:30;;;;;;;;;;;26.40;53.90;;;;;;5036478;28;19951;-78
2023/06/02 12:48:56;;;;;;;;;;;26.30;52.10;;;;;;5028237;28;20639;-78
2023/06/02 12:51:22;;;;;;;;;;;26.30;49.60;;;;;;5035311;28;19967;-80
2023/06/02 12:53:48;;;;;;;;;;;26.60;49.10;;;;;;5040004;28;20443;-78
2023/06/02 12:56:13;;;;;;;;;;;26.00;49.90;;;;;;5037404;28;20478;-78
2023/06/02 12:58:39;;;;;;;;;;;26.50;48.00;;;;;;5037435;28;19908;-79
2023/06/02 13:01:05;;;;;;;;;;;26.60;50.80;;;;;;5040684;28;20989;-78
2023/06/02 13:03:31;;;;;;;;;;;27.00;50.70;;;;;;5036507;28;19936;-78
2023/06/02 13:06:00;;;;;;;;;;;26.70;50.50;;;;;;5030942;28;19992;-78
2023/06/02 13:08:26;;;;;;;;;;;26.40;52.10;;;;;;5033768;28;19913;-79
2023/06/02 13:10:51;;;;;;;;;;;26.60;51.90;;;;;;5039003;28;19939;-78
2023/06/02 13:13:17;;;;;;;;;;;26.90;51.50;;;;;;5028914;28;20111;-79
2023/06/02 13:15:43;;;;;;;;;;;26.60;51.90;;;;;;5034581;28;19932;-78
2023/06/02 13:18:09;;;;;;;;;;;26.70;50.80;;;;;;5029422;28;19916;-79
2023/06/02 13:20:34;;;;;;;;;;;26.50;52.50;;;;;;5030670;28;19913;-78
2023/06/02 13:23:00;;;;;;;;;;;26.60;52.10;;;;;;5038759;28;20103;-78
2023/06/02 13:25:26;;;;;;;;;;;26.70;53.80;;;;;;5036277;28;19909;-79
2023/06/02 13:27:51;;;;;;;;;;;26.50;55.90;;;;;;5044335;28;20448;-79
2023/06/02 13:30:18;;;;;;;;;;;26.50;53.90;;;;;;5031225;28;20470;-78
2023/06/02 13:32:44;;;;;;;;;;;26.10;54.20;;;;;;5041407;28;19908;-78
2023/06/02 13:35:10;;;;;;;;;;;25.90;55.10;;;;;;5035894;28;19909;-78
2023/06/02 13:37:36;;;;;;;;;;;26.50;55.10;;;;;;5028927;28;19909;-79
2023/06/02 13:40:03;;;;;;;;;;;26.60;54.60;;;;;;5030630;28;19916;-78
2023/06/02 13:42:29;;;;;;;;;;;26.40;53.80;;;;;;5026884;28;19909;-78
2023/06/02 13:44:54;;;;;;;;;;;26.50;54.00;;;;;;5035033;28;19919;-79
2023/06/02 13:47:20;;;;;;;;;;;26.70;54.40;;;;;;5031966;28;19908;-78
2023/06/02 13:49:46;;;;;;;;;;;26.60;51.50;;;;;;5031985;28;20435;-79
2023/06/02 13:52:11;;;;;;;;;;;26.60;52.10;;;;;;5025942;28;19909;-78
2023/06/02 13:54:37;;;;;;;;;;;26.90;52.60;;;;;;5027943;28;20062;-78
2023/06/02 13:57:03;;;;;;;;;;;27.00;52.50;;;;;;5035995;28;19948;-78
2023/06/02 13:59:29;;;;;;;;;;;27.00;54.50;;;;;;5033288;28;20189;-79
2023/06/02 14:01:56;;;;;;;;;;;27.20;55.00;;;;;;5029690;28;19912;-78
2023/06/02 14:04:21;;;;;;;;;;;27.30;54.70;;;;;;5029941;28;19916;-78
2023/06/02 14:06:47;;;;;;;;;;;27.40;53.90;;;;;;5033541;28;20727;-79
2023/06/02 14:09:13;;;;;;;;;;;27.40;54.10;;;;;;5030327;28;19958;-78
2023/06/02 14:11:38;;;;;;;;;;;27.50;53.10;;;;;;5035930;28;19913;-78
2023/06/02 14:14:07;;;;;;;;;;;27.70;53.00;;;;;;5027976;28;19909;-78
2023/06/02 14:16:33;;;;;;;;;;;27.80;52.30;;;;;;5028196;28;20011;-78
2023/06/02 14:18:59;;;;;;;;;;;27.90;51.60;;;;;;5026435;28;20003;-79